Flight Track Log - Related Links

Times and Time Zones

All times are in EST time to prevent confusion due to time zone crossing. See the AAL2345 flight status page for this flight to view local times or setup timezone preferences in your user account.

Time Position Orientation Groundspeed Altitude Reporting Facility
EST Latitude Longitude Course Direction KTS MPH feet Rate Location/Type
Mon 07:03:03 PM 41.9564 -87.9514 194° South 174 200 32,000  Level Chicago Center
Mon 07:03:58 PM 41.9000 -87.9833 203° Southwest 252 290 3,800 -11,952 Descending Chicago TRACON
Mon 07:05:00 PM 41.7524 -88.1759 198° South  Level Estimated
Mon 07:05:07 PM 41.8175 -87.9969 187° South 289 333 7,300  Level Chicago Center
Mon 07:06:00 PM 41.6517 -88.1677 177° South  Level FlightAware Approximate
Mon 07:06:09 PM 41.7397 -88.0242 195° South 291 335 10,700  Level Chicago Center
Mon 07:07:00 PM 41.5764 -88.2573 207° Southwest  Level Estimated
Mon 07:07:11 PM 41.6583 -88.0631 200° South 307 353 13,000  Level Chicago Center
Mon 07:08:00 PM 41.5009 -88.3467 194° South  Level Estimated
Mon 07:08:13 PM 41.5639 -88.1075 199° South 360 414 14,100  Level Chicago Center
Mon 07:09:15 PM 41.4344 -88.1664 199° South 422 486 16,400 2,081 Climbing Chicago Center
Mon 07:10:17 PM 41.3217 -88.2186 199° South 441 507 18,400 1,887 Climbing Chicago Center
Mon 07:11:19 PM 41.2044 -88.2711 199° South 448 516 20,300 1,839 Climbing Chicago Center
Mon 07:12:21 PM 41.0842 -88.3261 199° South 457 526 22,200 1,776 Climbing Chicago Center
Mon 07:13:24 PM 40.9481 -88.4175 207° Southwest 460 529 24,000 1,824 Climbing Chicago Center
Mon 07:14:26 PM 40.8425 -88.5128 214° Southwest 460 529 26,000 1,548 Climbing Chicago Center
Mon 07:15:28 PM 40.7339 -88.6019 212° Southwest 460 529 27,200 1,597 Climbing Chicago Center
Mon 07:16:30 PM 40.6253 -88.6925 212° Southwest 464 534 29,300 1,694 Climbing Chicago Center
Mon 07:17:32 PM 40.5206 -88.7781 212° Southwest 453 521 30,700 1,113 Climbing Chicago Center
Mon 07:18:34 PM 40.4169 -88.8669 213° Southwest 444 511 31,600 629 Climbing Chicago Center
Mon 07:19:36 PM 40.3133 -88.9961 224° Southwest 427 491 32,000 194 Climbing Chicago Center
Mon 07:20:38 PM 40.2231 -89.0956 220° Southwest 424 488 32,000  Level Chicago Center
Mon 07:21:40 PM 40.1322 -89.1989 221° Southwest 429 494 32,000  Level Chicago Center
Mon 07:22:38 PM 40.0392 -89.3025 220° Southwest 430 495 32,000 50 Level Kansas City Center
Mon 07:23:40 PM 39.9478 -89.4056 221° Southwest 431 496 32,100 -48 Climbing Kansas City Center
Mon 07:24:42 PM 39.8578 -89.5064 221° Southwest 428 493 31,900  Descending Kansas City Center
Mon 07:25:44 PM 39.7669 -89.6058 220° Southwest 426 490 32,100 48 Climbing Kansas City Center
Mon 07:26:46 PM 39.6739 -89.7086 220° Southwest 421 484 32,000 -97 Descending Kansas City Center
Mon 07:27:48 PM 39.5856 -89.8039 220° Southwest 415 478 31,900 -48 Descending Kansas City Center
Mon 07:28:50 PM 39.4967 -89.9014 220° Southwest 418 481 31,900 48 Level Kansas City Center
Mon 07:29:52 PM 39.4072 -89.9983 220° Southwest 421 484 32,000 97 Climbing Kansas City Center
Mon 07:30:54 PM 39.2992 -90.1164 220° Southwest 424 488 32,100  Climbing Kansas City Center
Mon 07:31:56 PM 39.2089 -90.2133 220° Southwest 425 489 32,000  Descending Kansas City Center
Mon 07:32:58 PM 39.1192 -90.3117 220° Southwest 425 489 32,100  Climbing Kansas City Center
Mon 07:34:00 PM 39.0294 -90.4072 220° Southwest 423 487 32,000 -48 Descending Kansas City Center
Mon 07:35:02 PM 38.9261 -90.5194 220° Southwest 421 484 32,000 -48 Level Kansas City Center
Mon 07:36:04 PM 38.8356 -90.6125 219° Southwest 416 479 31,900  Descending Kansas City Center
Mon 07:37:06 PM 38.7467 -90.7097 220° Southwest 434 499 32,000 48 Climbing Kansas City Center
Mon 07:38:08 PM 38.6572 -90.8025 219° Southwest 427 491 32,000 48 Level Kansas City Center
Mon 07:39:10 PM 38.5692 -90.8958 220° Southwest 418 481 32,100  Climbing Kansas City Center
Mon 07:40:12 PM 38.4622 -91.0081 219° Southwest 417 480 32,000 -48 Descending Kansas City Center
Mon 07:41:14 PM 38.3731 -91.1014 219° Southwest 418 481 32,000  Level Kansas City Center
Mon 07:42:16 PM 38.2831 -91.1942 219° Southwest 418 481 32,000  Level Kansas City Center
Mon 07:43:18 PM 38.1928 -91.2878 219° Southwest 419 482 32,000  Level Kansas City Center
Mon 07:44:20 PM 38.0950 -91.3894 219° Southwest 420 483 32,000 48 Level Kansas City Center
Mon 07:45:22 PM 38.0044 -91.4831 219° Southwest 419 482 32,100  Climbing Kansas City Center
Mon 07:46:24 PM 37.9156 -91.5764 220° Southwest 414 476 32,000 -97 Descending Kansas City Center
Mon 07:47:26 PM 37.8242 -91.6706 219° Southwest 417 480 31,900 -48 Descending Kansas City Center
Mon 07:48:28 PM 37.7322 -91.7633 219° Southwest 418 481 31,900 48 Level Kansas City Center
Mon 07:49:30 PM 37.6353 -91.8500 215° Southwest 419 482 32,000 48 Climbing Kansas City Center
Mon 07:50:32 PM 37.5117 -91.9442 211° Southwest 425 489 32,000  Level Kansas City Center
Mon 07:51:34 PM 37.4094 -92.0231 212° Southwest 426 490 32,000  Level Kansas City Center
Mon 07:52:36 PM 37.3083 -92.1022 212° Southwest 425 489 32,000  Level Kansas City Center
Mon 07:53:38 PM 37.2067 -92.1828 212° Southwest 428 493 32,000  Level Kansas City Center
Mon 07:54:40 PM 37.1053 -92.2600 211° Southwest 425 489 32,000  Level Kansas City Center
Mon 07:55:42 PM 37.0058 -92.3408 213° Southwest 422 486 32,000  Level Kansas City Center
Mon 07:56:44 PM 36.9167 -92.4333 220° Southwest 416 479 32,000  Level Kansas City Center
Mon 07:57:46 PM 36.8347 -92.5344 225° Southwest 411 473 32,000  Level Kansas City Center
Mon 07:58:48 PM 36.7372 -92.6539 224° Southwest 408 470 32,000  Level Kansas City Center
Mon 07:59:52 PM 36.6558 -92.7522 224° Southwest 408 470 32,000  Level Kansas City Center
Mon 08:00:54 PM 36.5692 -92.8564 224° Southwest 409 471 32,000  Level Kansas City Center
Mon 08:01:56 PM 36.4889 -92.9569 225° Southwest 410 472 32,000  Level Kansas City Center
Mon 08:02:58 PM 36.4078 -93.0531 224° Southwest 407 468 32,000 -48 Level Kansas City Center
Mon 08:04:00 PM 36.3267 -93.1528 225° Southwest 410 472 31,900  Descending Kansas City Center
Mon 08:05:02 PM 36.2436 -93.2536 224° Southwest 417 480 32,000 48 Climbing Kansas City Center
Mon 08:06:04 PM 36.1458 -93.3722 224° Southwest 413 475 32,000  Level Kansas City Center
Mon 08:07:06 PM 36.0642 -93.4700 224° Southwest 412 474 32,000  Level Kansas City Center
Mon 08:08:08 PM 35.9819 -93.5689 224° Southwest 414 476 32,000  Level Kansas City Center
Mon 08:09:10 PM 35.9006 -93.6672 224° Southwest 413 475 32,000  Level Kansas City Center
Mon 08:10:12 PM 35.8183 -93.7647 224° Southwest 413 475 32,000  Level Kansas City Center
Mon 08:11:31 PM 35.7011 -93.9033 224° Southwest 416 479 32,000  Level Memphis Center
Mon 08:12:33 PM 35.6186 -94.0014 224° Southwest 415 478 32,000 48 Level Memphis Center
Mon 08:13:35 PM 35.5353 -94.0994 224° Southwest 415 478 32,100  Climbing Memphis Center
Mon 08:14:37 PM 35.4367 -94.2153 224° Southwest 413 475 32,000 -49 Descending Memphis Center
Mon 08:15:38 PM 35.3536 -94.3108 223° Southwest 411 473 32,000 -49 Level Memphis Center
Mon 08:16:40 PM 35.2672 -94.4033 221° Southwest 412 474 31,900  Descending Memphis Center
Mon 08:17:42 PM 35.1811 -94.4981 222° Southwest 416 479 32,000 97 Climbing Memphis Center
Mon 08:18:44 PM 35.0928 -94.5925 221° Southwest 419 482 32,100  Climbing Memphis Center
Mon 08:19:45 PM 35.0028 -94.6914 222° Southwest 415 478 32,000 -49 Descending Memphis Center
Mon 08:20:47 PM 34.9156 -94.7842 221° Southwest 415 478 32,000  Level Memphis Center
Mon 08:21:49 PM 34.8292 -94.8786 222° Southwest 415 478 32,000 -49 Level Memphis Center
Mon 08:22:50 PM 34.7428 -94.9694 221° Southwest 411 473 31,900 -634 Descending Memphis Center
Mon 08:23:52 PM 34.6672 -95.0522 222° Southwest 379 436 30,700 -1,258 Descending Memphis Center
Mon 08:24:54 PM 34.5458 -95.0708 187° South 386 444 29,300 -1,220 Descending Memphis Center
Mon 08:25:55 PM 34.4453 -95.0511 171° South 386 444 28,200 -1,171 Descending Memphis Center
Mon 08:26:57 PM 34.3417 -95.0375 174° South 380 437 26,900 -1,448 Descending Memphis Center
Mon 08:28:20 PM 34.2456 -95.1611 227° Southwest 379 436 24,700 -1,200 Descending Fort Worth Center
Mon 08:29:22 PM 34.1828 -95.2644 234° Southwest 383 441 24,000 -339 Descending Fort Worth Center
Mon 08:30:24 PM 34.1161 -95.3639 231° Southwest 382 440 24,000  Level Fort Worth Center
Mon 08:31:26 PM 34.0433 -95.4778 232° Southwest 364 419 24,000 -48 Level Fort Worth Center
Mon 08:32:28 PM 33.9792 -95.5747 231° Southwest 371 427 23,900 -677 Descending Fort Worth Center
Mon 08:33:30 PM 33.9103 -95.6792 232° Southwest 369 425 22,600 -1,403 Descending Fort Worth Center
Mon 08:34:32 PM 33.8467 -95.7758 232° Southwest 369 425 21,000 -1,500 Descending Fort Worth Center
Mon 08:35:34 PM 33.7828 -95.8708 231° Southwest 365 420 19,500 -1,452 Descending Fort Worth Center
Mon 08:36:36 PM 33.7142 -95.9708 230° Southwest 370 426 18,000 -1,597 Descending Fort Worth Center
Mon 08:37:38 PM 33.6456 -96.0756 232° Southwest 370 426 16,200 -1,790 Descending Fort Worth Center
Mon 08:38:40 PM 33.5825 -96.1683 231° Southwest 359 413 14,300 -1,887 Descending Fort Worth Center
Mon 08:39:42 PM 33.5114 -96.2653 229° Southwest 359 413 12,300 -1,597 Descending Fort Worth Center
Mon 08:40:44 PM 33.4444 -96.3436 224° Southwest 339 390 11,000 -1,016 Descending Fort Worth Center
Mon 08:41:46 PM 33.3844 -96.4158 225° Southwest 283 326 10,200 -1,161 Descending Fort Worth Center
Mon 08:42:48 PM 33.3297 -96.4808 225° Southwest 278 320 8,600 -1,694 Descending Fort Worth Center
Mon 08:43:50 PM 33.2708 -96.5506 225° Southwest 276 318 6,700 -1,548 Descending Fort Worth Center
Mon 08:44:52 PM 33.2306 -96.6289 238° Southwest 276 318 5,400 -823 Descending Fort Worth Center
Mon 08:45:54 PM 33.1983 -96.7181 247° West 274 315 5,000 -194 Descending Fort Worth Center
Mon 08:46:56 PM 33.1703 -96.8019 248° West 274 315 5,000 -339 Level Fort Worth Center
Mon 08:47:58 PM 33.1389 -96.8925 248° West 278 320 4,300 -484 Descending Fort Worth Center
Mon 08:49:00 PM 33.1156 -96.9686 250° West 245 282 4,000 -290 Descending Fort Worth Center
Mon 08:50:02 PM 33.0814 -97.0208 232° Southwest 199 229 3,700 -629 Descending Fort Worth Center
Mon 08:51:04 PM 33.0278 -97.0272 186° South 181 208 2,700 -919 Descending Fort Worth Center
Mon 08:52:06 PM 32.9803 -97.0264 179° South 171 197 1,800 -793 Descending Fort Worth Center
Mon 08:53:05 PM 32.9333 -97.0167 170° South 141 162 1,100 -712 Descending Dallas / Fort Worth TRACON

Login

Don't have an account? Register now (free) for customized features, flight alerts, and more!